Genco Leader — VRYR8 — position and weather

sailwx.info

Track history (hours):
 
Tides and Currents Weather Stations Pressure Air Temp Water Temp Dewpoint Dewpoint Depression Visibility Wind Speed Wind Dir Waves Ship Positions

Genco Leader

Last reported at 2015-Mar-05 07:30 UTC. Time now 2015-Mar-05 18:50 UTC.
Position N 38°07' E 120°16'.

Length 225 m; draft 6.7 m.

Type: Cargo ship. MMSI: 477132000.

Date/timePositionNaut miles runAvg speedWind from/ knotsBaromVisibWave heightAir tempDewpointWater temp
2015-Mar-05 07:30N 38°07' E 120°16'1212.3
2015-Mar-05 06:33N 37°55' E 120°12'1211.7
2015-Mar-05 05:33N 37°44' E 120°11'8 7.6
2015-Mar-05 04:33N 37°39' E 120°18'0 0.1
2015-Mar-05 03:32N 37°39' E 120°18'0 0.0
2015-Mar-05 02:32N 37°39' E 120°18'0 0.0
2015-Mar-05 01:26N 37°39' E 120°18'0 0.0
2015-Mar-04 21:32N 37°39' E 120°18'0 0.0
2015-Mar-04 20:32N 37°39' E 120°18'0 0.0
2015-Mar-04 19:26N 37°39' E 120°18'0 0.0
2015-Mar-04 18:32N 37°39' E 120°18'0 0.0
2015-Mar-04 17:26N 37°39' E 120°18'0 0.0
2015-Mar-04 16:32N 37°39' E 120°18'0 0.0
2015-Mar-04 15:32N 37°39' E 120°18'0 0.0
2015-Mar-04 14:32N 37°39' E 120°18'0 0.0
2015-Mar-04 13:33N 37°39' E 120°18'0 0.0
2015-Mar-04 12:32N 37°39' E 120°18'0 0.0
2015-Mar-04 11:32N 37°39' E 120°18'0 0.0
2015-Mar-04 10:26N 37°39' E 120°18'0 0.0
2015-Mar-04 09:32N 37°39' E 120°18'0 0.0
2015-Mar-04 08:32N 37°39' E 120°18'0 0.0
2015-Mar-04 07:32N 37°39' E 120°18'0 0.0
2015-Mar-04 06:32N 37°39' E 120°18'0 0.0
2015-Mar-04 05:32N 37°39' E 120°18'0 0.0
2015-Mar-04 04:26N 37°39' E 120°18'0 0.0
2015-Mar-04 03:32N 37°39' E 120°18'0 0.0
2015-Mar-04 02:32N 37°39' E 120°18'0 0.0
2015-Mar-04 01:14N 37°39' E 120°18'0 0.0
2015-Mar-04 00:26N 37°39' E 120°18'0 0.0
2015-Mar-03 23:32N 37°39' E 120°18'0 0.0
2015-Mar-03 22:32N 37°39' E 120°18'0 0.0
2015-Mar-03 21:32N 37°39' E 120°18'0 0.0
2015-Mar-03 20:26N 37°39' E 120°18'0 0.0
2015-Mar-03 19:32N 37°39' E 120°18'0 0.0
2015-Mar-03 15:32N 37°39' E 120°18'0 0.0
2015-Mar-03 14:32N 37°39' E 120°18'0 0.0
2015-Mar-03 13:32N 37°39' E 120°18'0 0.0
2015-Mar-03 12:26N 37°39' E 120°18'0 0.0
2015-Mar-03 11:32N 37°39' E 120°18'0 0.0
2015-Mar-03 10:32N 37°39' E 120°18'0 0.0
2015-Mar-03 09:26N 37°39' E 120°18'0 0.0
2015-Mar-03 08:32N 37°39' E 120°18'0 0.0
2015-Mar-03 07:32N 37°39' E 120°18'0 0.0
2015-Mar-03 06:14N 37°39' E 120°18'0 0.0
2015-Mar-03 05:32N 37°39' E 120°18'0 0.0
2015-Mar-03 04:20N 37°39' E 120°18'0 0.0
2015-Mar-03 03:32N 37°39' E 120°18'0 0.0
2015-Mar-03 02:32N 37°39' E 120°18'0 0.0
2015-Mar-03 01:32N 37°39' E 120°18'0 0.0
2015-Mar-03 00:26N 37°39' E 120°18'0 0.0
2015-Mar-02 23:32N 37°39' E 120°18'0 0.0
2015-Mar-02 22:32N 37°39' E 120°18'0 0.0
2015-Mar-02 21:26N 37°39' E 120°18'0 0.0
2015-Mar-02 20:32N 37°39' E 120°18'0 0.0
2015-Mar-02 19:26N 37°39' E 120°18'0 0.0
2015-Mar-02 18:26N 37°39' E 120°18'0 0.0
2015-Mar-02 17:32N 37°39' E 120°18'0 0.0
2015-Mar-02 16:26N 37°39' E 120°18'0 0.0
2015-Mar-02 15:32N 37°39' E 120°18'0 0.0
2015-Mar-02 14:32N 37°39' E 120°18'0 0.0
2015-Mar-02 13:32N 37°39' E 120°18'0 0.0
2015-Mar-02 12:33N 37°39' E 120°18'1 0.8
2015-Mar-02 11:34N 37°39' E 120°17'8 7.5
2015-Mar-02 10:33N 37°43' E 120°10'1 1.4
2015-Mar-02 09:31N 37°45' E 120°10'0 0.0
2015-Mar-02 08:31N 37°45' E 120°10'0 0.0
2015-Mar-02 07:32N 37°45' E 120°10'0 0.1
2015-Mar-02 06:31N 37°45' E 120°10'0 0.0
2015-Mar-02 05:31N 37°45' E 120°10'0 0.1
2015-Mar-02 04:33N 37°45' E 120°10'4 3.9
2015-Mar-02 03:33N 37°49' E 120°10'9 8.5
2015-Mar-02 02:33N 37°57' E 120°13'9 9.1
2015-Mar-02 01:33N 38°06' E 120°15'10 9.7
2015-Mar-02 00:33N 38°15' E 120°17'50 8.0
2015-Mar-01 18:18N 38°25' E 121°20'810.9
2015-Mar-01 17:33N 38°22' E 121°30'1410.8
2015-Mar-01 16:15N 38°15' E 121°45'811.4
2015-Mar-01 15:33N 38°10' E 121°53'1611.1
2015-Mar-01 14:05N 38°02' E 122°11'3010.6
2015-Mar-01 11:16N 37°45' E 122°43'910.6
2015-Mar-01 10:26N 37°40' E 122°51'1210.8
2015-Mar-01 09:17N 37°33' E 123°04'  
Track history (hours):
 
Tides and Currents Weather Stations Pressure Air Temp Water Temp Dewpoint Dewpoint Depression Visibility Wind Speed Wind Dir Waves Ship Positions

Genco Leader

Last reported at 2015-Mar-05 07:30 UTC. Time now 2015-Mar-05 18:50 UTC.
Position N 38°07' E 120°16'.

Length 225 m; draft 6.7 m.

Type: Cargo ship. MMSI: 477132000.

Date/timePositionNaut miles runAvg speedWind from/ knotsBaromVisibWave heightAir tempDewpointWater temp
2015-Mar-05 07:30N 38°07' E 120°16'1212.3
2015-Mar-05 06:33N 37°55' E 120°12'1211.7
2015-Mar-05 05:33N 37°44' E 120°11'8 7.6
2015-Mar-05 04:33N 37°39' E 120°18'0 0.1
2015-Mar-05 03:32N 37°39' E 120°18'0 0.0
2015-Mar-05 02:32N 37°39' E 120°18'0 0.0
2015-Mar-05 01:26N 37°39' E 120°18'0 0.0
2015-Mar-04 21:32N 37°39' E 120°18'0 0.0
2015-Mar-04 20:32N 37°39' E 120°18'0 0.0
2015-Mar-04 19:26N 37°39' E 120°18'0 0.0
2015-Mar-04 18:32N 37°39' E 120°18'0 0.0
2015-Mar-04 17:26N 37°39' E 120°18'0 0.0
2015-Mar-04 16:32N 37°39' E 120°18'0 0.0
2015-Mar-04 15:32N 37°39' E 120°18'0 0.0
2015-Mar-04 14:32N 37°39' E 120°18'0 0.0
2015-Mar-04 13:33N 37°39' E 120°18'0 0.0
2015-Mar-04 12:32N 37°39' E 120°18'0 0.0
2015-Mar-04 11:32N 37°39' E 120°18'0 0.0
2015-Mar-04 10:26N 37°39' E 120°18'0 0.0
2015-Mar-04 09:32N 37°39' E 120°18'0 0.0
2015-Mar-04 08:32N 37°39' E 120°18'0 0.0
2015-Mar-04 07:32N 37°39' E 120°18'0 0.0
2015-Mar-04 06:32N 37°39' E 120°18'0 0.0
2015-Mar-04 05:32N 37°39' E 120°18'0 0.0
2015-Mar-04 04:26N 37°39' E 120°18'0 0.0
2015-Mar-04 03:32N 37°39' E 120°18'0 0.0
2015-Mar-04 02:32N 37°39' E 120°18'0 0.0
2015-Mar-04 01:14N 37°39' E 120°18'0 0.0
2015-Mar-04 00:26N 37°39' E 120°18'0 0.0
2015-Mar-03 23:32N 37°39' E 120°18'0 0.0
2015-Mar-03 22:32N 37°39' E 120°18'0 0.0
2015-Mar-03 21:32N 37°39' E 120°18'0 0.0
2015-Mar-03 20:26N 37°39' E 120°18'0 0.0
2015-Mar-03 19:32N 37°39' E 120°18'0 0.0
2015-Mar-03 15:32N 37°39' E 120°18'0 0.0
2015-Mar-03 14:32N 37°39' E 120°18'0 0.0
2015-Mar-03 13:32N 37°39' E 120°18'0 0.0
2015-Mar-03 12:26N 37°39' E 120°18'0 0.0
2015-Mar-03 11:32N 37°39' E 120°18'0 0.0
2015-Mar-03 10:32N 37°39' E 120°18'0 0.0
2015-Mar-03 09:26N 37°39' E 120°18'0 0.0
2015-Mar-03 08:32N 37°39' E 120°18'0 0.0
2015-Mar-03 07:32N 37°39' E 120°18'0 0.0
2015-Mar-03 06:14N 37°39' E 120°18'0 0.0
2015-Mar-03 05:32N 37°39' E 120°18'0 0.0
2015-Mar-03 04:20N 37°39' E 120°18'0 0.0
2015-Mar-03 03:32N 37°39' E 120°18'0 0.0
2015-Mar-03 02:32N 37°39' E 120°18'0 0.0
2015-Mar-03 01:32N 37°39' E 120°18'0 0.0
2015-Mar-03 00:26N 37°39' E 120°18'0 0.0
2015-Mar-02 23:32N 37°39' E 120°18'0 0.0
2015-Mar-02 22:32N 37°39' E 120°18'0 0.0
2015-Mar-02 21:26N 37°39' E 120°18'0 0.0
2015-Mar-02 20:32N 37°39' E 120°18'0 0.0
2015-Mar-02 19:26N 37°39' E 120°18'0 0.0
2015-Mar-02 18:26N 37°39' E 120°18'0 0.0
2015-Mar-02 17:32N 37°39' E 120°18'0 0.0
2015-Mar-02 16:26N 37°39' E 120°18'0 0.0
2015-Mar-02 15:32N 37°39' E 120°18'0 0.0
2015-Mar-02 14:32N 37°39' E 120°18'0 0.0
2015-Mar-02 13:32N 37°39' E 120°18'0 0.0
2015-Mar-02 12:33N 37°39' E 120°18'1 0.8
2015-Mar-02 11:34N 37°39' E 120°17'8 7.5
2015-Mar-02 10:33N 37°43' E 120°10'1 1.4
2015-Mar-02 09:31N 37°45' E 120°10'0 0.0
2015-Mar-02 08:31N 37°45' E 120°10'0 0.0
2015-Mar-02 07:32N 37°45' E 120°10'0 0.1
2015-Mar-02 06:31N 37°45' E 120°10'0 0.0
2015-Mar-02 05:31N 37°45' E 120°10'0 0.1
2015-Mar-02 04:33N 37°45' E 120°10'4 3.9
2015-Mar-02 03:33N 37°49' E 120°10'9 8.5
2015-Mar-02 02:33N 37°57' E 120°13'9 9.1
2015-Mar-02 01:33N 38°06' E 120°15'10 9.7
2015-Mar-02 00:33N 38°15' E 120°17'50 8.0
2015-Mar-01 18:18N 38°25' E 121°20'810.9
2015-Mar-01 17:33N 38°22' E 121°30'1410.8
2015-Mar-01 16:15N 38°15' E 121°45'811.4
2015-Mar-01 15:33N 38°10' E 121°53'1611.1
2015-Mar-01 14:05N 38°02' E 122°11'3010.6
2015-Mar-01 11:16N 37°45' E 122°43'910.6
2015-Mar-01 10:26N 37°40' E 122°51'1210.8
2015-Mar-01 09:17N 37°33' E 123°04'  

Dump ship's entire track history